Decoded Metar for GMTT (TANGER in MOROCCO) (IATA:TNG) | Meteo·Mobile Aviation Weather
aviador You're here:

GMTT Decoded Metar

TANGER in MOROCCO
Report Time2018-10-19 10:00:00
UTC Time2018-10-19 10:08:16
Flight Rules vfr VFR
Wind070° at 10 kt
W.Decomp.*RWY 10: 8.8 kt HW 4.7 kt LCW
W.Rank070° ranks 6
Current wind is above 070° avg. (9.6)
Visibility9999 m
Phenomena:N/A
Clouds:Scattered 016 Hf
Scattered 100 Hf
Expected CloudBase > 2,800 ft AGL from Temp-Dew spread
CeilingNone
Temp18°C (ISA +3)
Dew Point11°C (64% RH)
AAT14.7°C
QNH1010 hPa
Density Alt715 ft
Elevation69 ft
Report Wrong Elevation
Raw Report
METAR GMTT 191000Z 07010KT 9999 SCT016 SCT100 18/11 Q1010 NOSIG=

Extra information for GMTT:More info

Metar Taf Metar & Taf Last 4 Metars F.Rules Stats Wind Profile Meteogram Temp Stats Airport Information Weather charts Add Link Nearby VenuesMetar ALERT Operation Metar Decoded Social comments